Time;durP1;ratioP1;P1;durP2;ratioP2;P2;SDS_P1;SDS_P2;PMS_P1;PMS_P2;Temp;Humidity;BMP_temperature;BMP_pressure;BME280_temperature;BME280_humidity;BME280_pressure;Samples;Min_cycle;Max_cycle;Signal;HPM_P1;HPM_P2
2023/08/22 00:02:18;;;;;;;15.55;13.38;;;;;;;21.66;100.00;100703.55;1457985;88;21449;-81
2023/08/22 00:04:45;;;;;;;17.62;14.35;;;;;;;21.69;100.00;100707.69;1480584;88;22395;-81
2023/08/22 00:07:11;;;;;;;20.80;14.90;;;;;;;21.82;100.00;100703.59;1486267;88;21500;-81
2023/08/22 00:09:37;;;;;;;14.03;12.75;;;;;;;21.82;100.00;100703.59;1473895;88;21435;-81
2023/08/22 00:12:05;;;;;;;15.88;14.23;;;;;;;21.97;100.00;100698.73;1478109;88;21509;-82
2023/08/22 00:14:31;;;;;;;15.15;13.48;;;;;;;21.97;100.00;100698.73;1480893;88;21479;-79
2023/08/22 00:16:58;;;;;;;16.25;12.80;;;;;;;22.05;100.00;100700.36;1484884;88;21515;-79
2023/08/22 00:19:26;;;;;;;15.23;13.68;;;;;;;22.11;100.00;100687.89;1475129;88;21613;-79
2023/08/22 00:21:52;;;;;;;15.78;13.48;;;;;;;22.11;100.00;100687.89;1460759;88;21405;-79
2023/08/22 00:24:19;;;;;;;17.42;14.30;;;;;;;22.19;100.00;100689.83;1486603;88;22344;-79
2023/08/22 00:26:45;;;;;;;20.12;14.53;;;;;;;22.23;100.00;100691.03;1471526;88;21531;-80
2023/08/22 00:29:11;;;;;;;15.15;13.53;;;;;;;22.25;100.00;100697.57;1450147;88;21376;-80
2023/08/22 00:31:37;;;;;;;15.20;12.98;;;;;;;22.24;100.00;100695.40;1484808;88;21464;-80
2023/08/22 00:34:03;;;;;;;16.55;13.98;;;;;;;22.23;100.00;100690.21;1480657;88;21464;-81
2023/08/22 00:36:29;;;;;;;15.60;14.03;;;;;;;22.26;100.00;100692.47;1482227;88;22387;-81
2023/08/22 00:38:56;;;;;;;18.30;13.48;;;;;;;22.27;100.00;100695.49;1484262;88;22098;-81
2023/08/22 00:41:22;;;;;;;16.02;12.85;;;;;;;22.29;100.00;100690.16;1477108;88;22418;-79
2023/08/22 00:43:48;;;;;;;16.77;12.60;;;;;;;22.32;100.00;100688.90;1479290;88;21421;-79
2023/08/22 00:46:15;;;;;;;15.20;13.68;;;;;;;22.35;100.00;100685.77;1484230;88;21561;-79
2023/08/22 00:48:42;;;;;;;14.63;13.13;;;;;;;22.36;100.00;100683.39;1474347;88;22365;-79
2023/08/22 00:51:08;;;;;;;17.07;13.75;;;;;;;22.40;100.00;100676.50;1474760;88;21441;-79
2023/08/22 00:53:36;;;;;;;40.58;15.60;;;;;;;22.42;100.00;100673.59;1477904;88;22384;-80
2023/08/22 00:56:03;;;;;;;21.07;12.93;;;;;;;22.47;100.00;100681.33;1442600;89;21455;-79
2023/08/22 00:58:29;;;;;;;16.48;13.10;;;;;;;22.50;100.00;100679.55;1458457;89;21448;-79
2023/08/22 01:00:55;;;;;;;15.88;14.00;;;;;;;22.52;100.00;100676.08;1457585;89;22381;-80
2023/08/22 01:03:22;;;;;;;17.17;13.55;;;;;;;22.57;100.00;100674.61;1437595;89;21455;-80
2023/08/22 01:06:16;;;;;;;15.85;14.23;;;;;;;22.60;100.00;100672.82;1431894;91;21563;-79
2023/08/22 01:08:47;;;;;;;16.05;14.10;;;;;;;22.62;100.00;100670.20;1459682;89;21604;-80
2023/08/22 01:11:24;;;;;;;14.53;13.08;;;;;;;22.65;100.00;100674.34;1464801;89;22372;-79
2023/08/22 01:13:53;;;;;;;14.68;13.10;;;;;;;22.65;100.00;100674.34;1430087;91;21503;-78
2023/08/22 01:16:19;;;;;;;14.50;12.73;;;;;;;22.62;100.00;100674.78;1458585;89;21633;-79
2023/08/22 01:18:47;;;;;;;15.50;13.85;;;;;;;22.61;100.00;100678.51;1450956;89;21560;-80
2023/08/22 01:21:20;;;;;;;21.00;15.72;;;;;;;22.59;100.00;100674.70;1450668;89;21478;-82
2023/08/22 01:23:46;;;;;;;22.05;13.78;;;;;;;22.56;100.00;100672.94;1452201;89;21624;-82
2023/08/22 01:30:16;;;;;;;;;;;;;;;22.53;100.00;100664.80;1457989;89;21559;-79
2023/08/22 01:33:38;;;;;;;17.30;14.58;;;;;;;22.54;100.00;100667.78;1452603;89;20582;-79
2023/08/22 01:36:08;;;;;;;18.82;14.58;;;;;;;22.51;100.00;100667.70;1430456;91;21674;-80
2023/08/22 01:38:35;;;;;;;15.60;13.62;;;;;;;22.48;100.00;100664.09;1428860;89;22644;-80
2023/08/22 01:41:03;;;;;;;20.20;14.98;;;;;;;22.47;100.00;100667.84;1451539;90;22543;-80
2023/08/22 01:43:36;;;;;;;17.02;15.38;;;;;;;22.46;100.00;100668.88;1426605;91;21644;-80
2023/08/22 01:46:05;;;;;;;15.30;13.75;;;;;;;22.46;100.00;100670.75;1453572;90;21464;-81
2023/08/22 01:48:31;;;;;;;16.25;14.53;;;;;;;22.42;100.00;100677.64;1446857;90;21501;-80
2023/08/22 01:50:57;;;;;;;20.20;13.90;;;;;;;22.42;100.00;100671.72;1454062;90;22145;-81
2023/08/22 01:53:23;;;;;;;13.35;11.85;;;;;;;22.40;100.00;100671.11;1453888;90;21463;-80
2023/08/22 01:55:49;;;;;;;15.55;13.88;;;;;;;22.40;100.00;100669.76;1453173;90;21620;-81
2023/08/22 01:58:15;;;;;;;16.17;13.75;;;;;;;22.44;100.00;100670.14;1450897;90;21492;-82
2023/08/22 02:00:42;;;;;;;15.10;13.75;;;;;;;22.49;100.00;100678.40;1435549;90;21516;-80
2023/08/22 02:03:08;;;;;;;15.68;13.38;;;;;;;22.48;100.00;100677.58;1426733;91;21466;-80
2023/08/22 02:05:34;;;;;;;15.03;13.50;;;;;;;22.48;100.00;100678.93;1450361;89;22424;-81
2023/08/22 02:08:01;;;;;;;15.05;13.25;;;;;;;22.46;100.00;100674.27;1449831;90;21589;-80
2023/08/22 02:10:27;;;;;;;18.90;14.55;;;;;;;22.42;100.00;100681.16;1451896;90;21501;-80
2023/08/22 02:12:53;;;;;;;16.12;13.60;;;;;;;22.39;100.00;100689.69;1454790;90;21647;-79
2023/08/22 02:15:21;;;;;;;14.15;12.75;;;;;;;22.36;100.00;100690.12;1456097;90;22366;-79
2023/08/22 02:17:48;;;;;;;17.65;12.90;;;;;;;22.35;100.00;100695.20;1451108;90;22066;-79
2023/08/22 02:20:15;;;;;;;15.40;13.88;;;;;;;22.34;100.00;100692.73;1448928;90;23130;-79
2023/08/22 02:22:41;;;;;;;17.30;14.53;;;;;;;22.32;100.00;100693.47;1428667;89;22551;-80
2023/08/22 02:25:08;;;;;;;14.50;13.00;;;;;;;22.30;100.00;100689.66;1455112;90;21515;-79
2023/08/22 02:28:09;;;;;;;16.27;12.98;;;;;;;22.26;100.00;100691.95;1449553;90;21470;-80
2023/08/22 02:30:35;;;;;;;15.25;13.55;;;;;;;22.25;100.00;100696.22;1454418;90;21751;-80
2023/08/22 02:33:01;;;;;;;19.20;13.75;;;;;;;22.22;100.00;100695.31;1426291;91;21512;-80
2023/08/22 02:35:27;;;;;;;13.83;12.43;;;;;;;22.21;100.00;100694.49;1454053;89;21397;-79
2023/08/22 02:37:54;;;;;;;14.38;12.00;;;;;;;22.25;100.00;100694.34;1426331;91;21525;-80
2023/08/22 02:40:20;;;;;;;18.42;13.28;;;;;;;22.28;100.00;100693.91;1447986;89;21523;-80
2023/08/22 02:42:46;;;;;;;14.28;10.78;;;;;;;22.32;100.00;100691.59;1452956;90;21550;-80
2023/08/22 02:45:13;;;;;;;17.48;13.62;;;;;;;22.35;100.00;100691.16;1453057;90;21442;-81
2023/08/22 02:47:39;;;;;;;18.07;13.35;;;;;;;22.35;100.00;100681.72;1455865;90;21522;-81
2023/08/22 02:50:06;;;;;;;14.83;12.65;;;;;;;22.35;100.00;100685.77;1450505;90;21435;-81
2023/08/22 02:52:33;;;;;;;16.70;13.10;;;;;;;22.35;100.00;100677.67;1457650;90;21552;-81
2023/08/22 02:54:59;;;;;;;15.45;12.90;;;;;;;22.35;100.00;100691.16;1454992;90;21411;-81
2023/08/22 02:57:25;;;;;;;14.30;12.90;;;;;;;22.31;100.00;100691.30;1434346;90;21507;-81
2023/08/22 02:59:52;;;;;;;11.38;10.18;;;;;;;22.30;100.00;100680.23;1441135;90;21442;-81
2023/08/22 03:02:18;;;;;;;12.28;10.98;;;;;;;22.29;100.00;100683.95;1438385;90;21456;-81
2023/08/22 03:04:44;;;;;;;11.57;10.18;;;;;;;22.29;100.00;100683.95;1452564;90;22061;-80
2023/08/22 03:07:11;;;;;;;12.50;10.82;;;;;;;22.27;100.00;100686.88;1445828;90;21508;-81
2023/08/22 03:09:39;;;;;;;14.95;9.73;;;;;;;22.27;100.00;100686.05;1460629;90;22389;-81
2023/08/22 03:12:06;;;;;;;12.70;10.15;;;;;;;22.28;100.00;100688.52;1454517;90;21634;-81
2023/08/22 03:14:32;;;;;;;14.58;11.12;;;;;;;22.28;100.00;100686.34;1461179;90;21471;-80
2023/08/22 03:16:58;;;;;;;13.62;10.28;;;;;;;22.25;100.00;100681.39;1413292;90;22292;-81
2023/08/22 03:19:24;;;;;;;17.80;10.80;;;;;;;22.24;100.00;100686.46;1440003;90;21441;-81
2023/08/22 03:21:50;;;;;;;15.88;11.25;;;;;;;22.20;100.00;100690.12;1430596;91;21488;-81
2023/08/22 03:24:16;;;;;;;12.75;10.65;;;;;;;22.18;100.00;100690.03;1396739;93;21473;-80
2023/08/22 03:26:43;;;;;;;15.03;10.08;;;;;;;22.17;100.00;100682.97;1431086;91;21467;-81
2023/08/22 03:29:09;;;;;;;11.70;8.78;;;;;;;22.17;100.00;100688.36;1411024;92;21605;-81
2023/08/22 03:31:35;;;;;;;13.70;9.88;;;;;;;22.17;100.00;100685.66;1412579;91;22332;-81
2023/08/22 03:34:01;;;;;;;22.02;10.78;;;;;;;22.16;100.00;100683.50;1406189;93;21339;-81
2023/08/22 03:36:27;;;;;;;12.78;10.28;;;;;;;22.18;100.00;100687.34;1429089;91;21465;-82
2023/08/22 03:38:53;;;;;;;12.85;9.65;;;;;;;22.19;100.00;100682.27;1405287;92;21441;-82
2023/08/22 03:41:20;;;;;;;11.00;9.15;;;;;;;22.20;100.00;100685.27;1409858;91;22464;-82
2023/08/22 03:43:46;;;;;;;14.40;10.03;;;;;;;22.20;100.00;100678.52;1455280;89;22431;-82
2023/08/22 03:46:12;;;;;;;16.42;9.78;;;;;;;22.19;100.00;100680.92;1452840;90;21516;-82
2023/08/22 03:48:38;;;;;;;19.52;10.18;;;;;;;22.17;100.00;100688.36;1456599;90;21464;-81
2023/08/22 03:51:07;;;;;;;11.80;10.48;;;;;;;22.15;100.00;100688.56;1451182;90;22083;-79
2023/08/22 03:53:37;;;;;;;14.90;9.90;;;;;;;22.14;100.00;100680.19;1442867;90;21538;-81
2023/08/22 03:56:04;;;;;;;13.62;9.63;;;;;;;22.09;100.00;100678.13;1456591;90;21477;-80
2023/08/22 03:58:30;;;;;;;13.18;9.15;;;;;;;22.09;100.00;100679.48;1456233;90;21412;-80
2023/08/22 04:01:03;;;;;;;10.40;9.23;;;;;;;22.13;100.00;100675.03;1434309;91;21503;-80
2023/08/22 04:03:30;;;;;;;10.80;9.65;;;;;;;22.15;100.00;100681.00;1431436;91;21622;-80
2023/08/22 04:06:03;;;;;;;12.10;9.13;;;;;;;22.17;100.00;100674.88;1426287;91;21683;-80
2023/08/22 04:08:28;;;;;;;12.82;9.33;;;;;;;22.15;100.00;100675.09;1454665;89;21663;-81
2023/08/22 04:10:54;;;;;;;14.33;8.65;;;;;;;22.18;100.00;100673.86;1454987;90;21499;-81
2023/08/22 04:13:21;;;;;;;11.12;9.05;;;;;;;22.20;100.00;100669.91;1453126;90;21478;-81
2023/08/22 04:15:47;;;;;;;11.05;8.83;;;;;;;22.23;100.00;100674.86;1437654;90;22210;-81
2023/08/22 04:18:13;;;;;;;11.05;9.58;;;;;;;22.24;100.00;100672.98;1455675;90;21508;-81
2023/08/22 04:20:40;;;;;;;10.82;9.65;;;;;;;22.26;100.00;100670.38;1453463;90;21537;-82
2023/08/22 04:23:06;;;;;;;13.58;10.50;;;;;;;22.28;100.00;100670.17;1447162;90;21551;-81
2023/08/22 04:25:32;;;;;;;11.63;10.23;;;;;;;22.27;100.00;100668.00;1448240;90;21604;-82
2023/08/22 04:27:58;;;;;;;12.73;9.75;;;;;;;22.26;100.00;100665.52;1453273;90;22447;-81
2023/08/22 04:30:24;;;;;;;14.10;9.50;;;;;;;22.25;100.00;100666.56;1423064;91;21437;-80
2023/08/22 04:32:50;;;;;;;13.88;9.48;;;;;;;22.24;100.00;100670.29;1451159;89;21670;-81
2023/08/22 04:35:17;;;;;;;13.05;9.90;;;;;;;22.26;100.00;100667.68;1406833;91;22362;-80
2023/08/22 04:37:44;;;;;;;22.20;11.75;;;;;;;22.29;100.00;100670.47;1449345;90;21536;-81
2023/08/22 04:40:10;;;;;;;36.50;11.57;;;;;;;22.30;100.00;100665.40;1447074;90;22307;-81
2023/08/22 04:42:37;;;;;;;19.92;9.55;;;;;;;22.37;100.00;100663.45;1459298;90;22359;-82
2023/08/22 04:45:04;;;;;;;16.93;9.60;;;;;;;22.40;100.00;100653.58;1461655;90;21567;-82
2023/08/22 04:47:31;;;;;;;11.97;10.48;;;;;;;22.42;100.00;100662.28;1449680;90;22322;-81
2023/08/22 04:49:58;;;;;;;11.33;9.88;;;;;;;22.44;100.00;100660.70;1443481;90;21530;-81
2023/08/22 04:52:25;;;;;;;22.22;10.25;;;;;;;22.46;100.00;100662.13;1435452;90;21486;-81
2023/08/22 04:54:51;;;;;;;15.75;9.13;;;;;;;22.46;100.00;100658.09;1453271;90;21457;-81
2023/08/22 04:57:20;;;;;;;11.03;8.33;;;;;;;22.45;100.00;100673.98;1457556;90;21515;-82
2023/08/22 04:59:45;;;;;;;16.65;8.23;;;;;;;22.42;100.00;100684.39;1456887;90;21486;-80
2023/08/22 05:02:12;;;;;;;10.35;8.33;;;;;;;22.40;100.00;100683.24;1452798;90;21707;-81
2023/08/22 05:04:38;;;;;;;10.98;8.43;;;;;;;22.40;100.00;100687.28;1451601;90;22440;-81
2023/08/22 05:07:04;;;;;;;10.08;8.38;;;;;;;22.44;100.00;100691.71;1448221;90;21479;-80
2023/08/22 05:09:30;;;;;;;8.25;7.45;;;;;;;22.49;100.00;100699.45;1451912;90;21701;-81
2023/08/22 05:11:56;;;;;;;10.25;7.50;;;;;;;22.59;100.00;100696.80;1461613;90;21427;-82
2023/08/22 05:14:23;;;;;;;15.40;7.42;;;;;;;22.71;100.00;100697.73;1434898;90;21546;-81
2023/08/22 05:16:51;;;;;;;10.05;8.88;;;;;;;22.83;100.00;100693.25;1435558;90;22565;-82
2023/08/22 05:19:17;;;;;;;8.60;7.20;;;;;;;22.90;100.00;100699.42;1452815;90;21479;-83
2023/08/22 05:21:43;;;;;;;10.05;7.50;;;;;;;22.97;100.00;100702.91;1446670;90;21412;-81
2023/08/22 05:24:09;;;;;;;11.60;8.05;;;;;;;23.07;100.00;100702.38;1449462;90;21611;-81
2023/08/22 05:26:36;;;;;;;8.63;6.87;;;;;;;23.20;100.00;100697.38;1457560;90;21479;-80
2023/08/22 05:29:02;;;;;;;11.15;7.35;;;;;;;23.33;100.00;100693.20;1448025;90;21578;-81
2023/08/22 05:31:28;;;;;;;12.63;6.40;;;;;;;23.50;100.00;100696.09;1459785;90;22336;-81
2023/08/22 05:33:58;;;;;;;8.73;7.05;;;;;;;23.62;100.00;100696.15;1426352;91;22465;-81
2023/08/22 05:36:24;;;;;;;8.33;7.42;;;;;;;23.69;100.00;100696.91;1451052;90;21627;-82
2023/08/22 05:38:51;;;;;;;10.55;7.70;;;;;;;23.76;100.00;100694.95;1452803;88;21493;-83
2023/08/22 05:41:17;;;;;;;16.93;7.42;;;;;;;23.87;100.00;100699.59;1451017;90;21645;-82
2023/08/22 05:43:44;;;;;;;12.47;7.25;;;;;;;23.97;100.00;100698.24;1454167;90;22052;-82
2023/08/22 05:46:10;;;;;;;10.72;6.28;;;;;;;24.10;100.00;100706.96;1434009;91;21696;-82
2023/08/22 05:48:37;;;;;;;9.93;7.53;;;;;;;24.25;100.00;100695.72;1453384;89;21493;-82
2023/08/22 05:51:03;;;;;;;9.55;7.10;;;;;;;24.36;100.00;100703.56;1447723;90;21477;-82
2023/08/22 05:53:31;;;;;;;12.33;8.05;;;;;;;24.50;100.00;100716.39;1446659;89;21500;-83
2023/08/22 05:55:58;;;;;;;8.65;7.67;;;;;;;24.60;100.00;100713.10;1408369;91;21445;-82
2023/08/22 05:58:24;;;;;;;8.75;7.28;;;;;;;24.67;100.00;100716.54;1407139;93;21464;-81
2023/08/22 06:00:50;;;;;;;29.65;7.60;;;;;;;24.72;100.00;100713.42;1447606;90;21457;-82
2023/08/22 06:03:18;;;;;;;10.13;5.72;;;;;;;24.83;100.00;100709.59;1458575;90;21545;-81
2023/08/22 06:05:44;;;;;;;13.95;6.35;;;;;;;24.86;100.00;100710.47;1451484;90;21435;-82
2023/08/22 06:08:10;;;;;;;8.70;7.58;;;;;;;24.93;100.00;100712.02;1454683;90;22484;-81
2023/08/22 06:10:37;;;;;;;9.88;6.83;;;;;;;24.99;100.00;100712.42;1436057;90;21604;-81
2023/08/22 06:13:03;;;;;;;14.33;7.40;;;;;;;25.11;100.00;100720.53;1447301;90;21419;-79
2023/08/22 06:15:29;;;;;;;9.38;6.15;;;;;;;25.20;100.00;100709.69;1457584;89;21707;-80
2023/08/22 06:17:56;;;;;;;11.00;6.25;;;;;;;25.31;100.00;100709.89;1437645;90;22559;-81
2023/08/22 06:20:22;;;;;;;12.60;6.08;;;;;;;25.41;100.00;100712.30;1449176;90;21448;-79
2023/08/22 06:22:48;;;;;;;9.80;5.70;;;;;;;25.41;100.00;100702.81;1452240;90;21588;-88
2023/08/22 06:25:14;;;;;;;5.78;5.17;;;;;;;25.44;100.00;100704.22;1455804;90;21478;-86
2023/08/22 06:27:43;;;;;;;13.28;6.67;;;;;;;25.54;100.00;100703.06;1452340;90;22187;-89
2023/08/22 06:30:09;;;;;;;8.78;6.00;;;;;;;25.65;100.00;100706.80;1435953;90;22610;-85
2023/08/22 06:32:36;;;;;;;10.48;6.22;;;;;;;25.75;100.00;100704.31;1452771;90;21494;-87
2023/08/22 06:35:03;;;;;;;7.22;5.85;;;;;;;25.78;100.00;100708.40;1453169;90;21612;-88
2023/08/22 06:37:30;;;;;;;11.00;6.00;;;;;;;25.80;100.00;100703.56;1453902;90;21411;-86
2023/08/22 06:39:56;;;;;;;16.42;6.37;;;;;;;25.88;100.00;100709.45;1535193;90;21561;-88
2023/08/22 06:42:22;;;;;;;11.12;6.60;;;;;;;25.87;100.00;100707.00;1452658;90;22425;-87
2023/08/22 06:44:49;;;;;;;11.38;6.47;;;;;;;26.00;100.00;100708.05;1411489;91;21571;-88
2023/08/22 06:47:17;;;;;;;11.15;7.25;;;;;;;26.14;100.00;100709.11;1410208;93;21606;-85
2023/08/22 06:49:43;;;;;;;7.65;6.83;;;;;;;26.28;100.00;100713.16;1411508;91;21486;-80
2023/08/22 06:52:10;;;;;;;8.90;6.97;;;;;;;26.41;100.00;100712.83;1439646;90;21634;-84
2023/08/22 06:54:36;;;;;;;15.05;8.25;;;;;;;26.48;100.00;100718.12;1451529;90;21442;-85
2023/08/22 06:57:03;;;;;;;12.35;7.60;;;;;;;26.53;100.00;100720.95;1451905;90;22468;-85
2023/08/22 06:59:29;;;;;;;12.85;7.75;;;;;;;26.57;100.00;100725.34;1449769;90;22000;-84
2023/08/22 07:01:55;;;;;;;9.53;7.75;;;;;;;26.66;100.00;100723.32;1452152;90;22455;-85
2023/08/22 07:04:22;;;;;;;8.93;8.03;;;;;;;26.81;100.00;100727.34;1439124;90;21463;-85
2023/08/22 07:06:48;;;;;;;8.88;7.87;;;;;;;26.89;100.00;100727.75;1454504;90;22580;-86
2023/08/22 07:09:15;;;;;;;9.78;8.45;;;;;;;26.98;100.00;100724.89;1452689;90;21843;-85
2023/08/22 07:11:42;;;;;;;12.07;7.95;;;;;;;27.02;100.00;100727.95;1440195;90;21686;-85
2023/08/22 07:14:08;;;;;;;11.38;8.93;;;;;;;27.10;100.00;100728.86;1452276;90;21514;-85
2023/08/22 07:16:35;;;;;;;12.53;8.98;;;;;;;27.22;100.00;100726.09;1439481;90;22387;-85
2023/08/22 07:19:01;;;;;;;13.25;9.30;;;;;;;27.33;100.00;100724.31;1456643;90;21508;-86
2023/08/22 07:21:28;;;;;;;13.85;9.78;;;;;;;27.47;100.00;100723.41;1456400;90;21755;-86
2023/08/22 07:23:55;;;;;;;12.40;9.43;;;;;;;27.60;100.00;100728.48;1448611;90;21449;-86
2023/08/22 07:26:21;;;;;;;12.18;8.90;;;;;;;27.66;100.00;100720.66;1451452;90;21537;-85
2023/08/22 07:28:48;;;;;;;11.97;9.03;;;;;;;27.71;100.00;100717.16;1451314;90;21449;-85
2023/08/22 07:31:14;;;;;;;10.58;9.10;;;;;;;27.71;100.00;100722.61;1453056;90;22448;-85
2023/08/22 07:33:41;;;;;;;11.40;10.00;;;;;;;27.78;100.00;100717.81;1452937;90;22543;-84
2023/08/22 07:36:21;;;;;;;11.65;10.08;;;;;;;27.92;100.00;100719.63;1454336;90;21609;-86
2023/08/22 07:38:47;;;;;;;10.03;9.03;;;;;;;28.02;100.00;100717.00;1433024;90;21493;-86
2023/08/22 07:41:14;;;;;;;12.68;10.45;;;;;;;28.06;100.00;100720.32;1447728;89;21984;-84
2023/08/22 07:43:40;;;;;;;15.70;10.48;;;;;;;28.07;100.00;100716.51;1424774;91;21541;-86
2023/08/22 07:46:08;;;;;;;14.07;9.53;;;;;;;28.01;100.00;100716.72;1426389;91;21414;-86
2023/08/22 07:48:34;;;;;;;13.62;10.60;;;;;;;28.13;100.00;100711.94;1429504;91;21534;-84
2023/08/22 07:51:01;;;;;;;12.65;10.55;;;;;;;28.21;100.00;100713.38;1430340;91;22421;-85
2023/08/22 07:53:27;;;;;;;18.67;10.15;;;;;;;28.27;100.00;100714.52;1410335;91;21415;-85
2023/08/22 07:55:54;;;;;;;12.68;10.25;;;;;;;28.29;100.00;100708.30;1431723;91;21652;-86
2023/08/22 07:58:20;;;;;;;10.78;9.43;;;;;;;28.42;100.00;100717.12;1428080;91;21451;-84
2023/08/22 08:00:50;;;;;;;11.50;9.73;;;;;;;28.48;100.00;100716.09;1410492;91;21497;-86
2023/08/22 08:03:16;;;;;;;12.20;9.88;;;;;;;28.56;100.00;100714.25;1410450;91;21504;-85
2023/08/22 08:05:42;;;;;;;14.63;8.83;;;;;;;28.62;100.00;100708.31;1425000;91;21459;-84
2023/08/22 08:08:09;;;;;;;11.80;8.70;;;;;;;28.74;100.00;100709.78;1407541;91;22272;-85
2023/08/22 08:10:37;;;;;;;16.45;9.73;;;;;;;28.86;100.00;100706.02;1412773;91;21588;-83
2023/08/22 08:17:03;;;;;;;12.47;9.93;;;;;;;29.07;100.00;100707.83;1445891;93;21351;-86
2023/08/22 08:19:30;;;;;;;10.90;9.78;;;;;;;29.20;100.00;100710.09;1469835;94;21480;-86
2023/08/22 08:21:56;;;;;;;15.43;10.70;;;;;;;29.29;100.00;100705.47;1431451;93;21558;-85
2023/08/22 08:24:22;;;;;;;15.30;10.03;;;;;;;29.39;100.00;100715.89;1326121;93;21372;-87
2023/08/22 08:26:49;;;;;;;17.45;9.40;;;;;;;29.54;100.00;100715.67;1387994;93;22315;-87
2023/08/22 08:29:17;;;;;;;12.63;9.35;;;;;;;29.67;100.00;100722.03;1357831;93;21469;-86
2023/08/22 08:31:43;;;;;;;16.75;9.73;;;;;;;29.76;100.00;100720.42;1397004;94;22547;-87
2023/08/22 08:34:09;;;;;;;14.18;8.53;;;;;;;29.90;100.00;100715.28;1392237;93;21461;-86
2023/08/22 08:36:36;;;;;;;10.48;8.85;;;;;;;29.98;100.00;100710.66;1395502;93;21505;-81
2023/08/22 08:39:02;;;;;;;10.88;8.55;;;;;;;29.96;100.00;100710.11;1393950;93;21476;-82
2023/08/22 08:41:33;;;;;;;12.98;8.95;;;;;;;29.95;100.00;100713.91;1389829;92;21756;-83
2023/08/22 08:44:01;;;;;;;14.85;10.13;;;;;;;30.05;100.00;100718.58;1397663;93;21549;-82
2023/08/22 08:46:29;;;;;;;14.55;9.43;;;;;;;29.97;100.00;100712.28;1402538;93;21510;-80
2023/08/22 08:48:56;;;;;;;13.43;8.78;;;;;;;30.05;100.00;100712.57;1388314;93;21532;-82
2023/08/22 08:51:23;;;;;;;9.80;8.63;;;;;;;30.13;100.00;100711.23;1386394;93;21480;-82
2023/08/22 08:53:51;;;;;;;9.58;8.40;;;;;;;30.23;100.00;100716.71;1406278;92;22351;-83
2023/08/22 08:56:17;;;;;;;11.50;8.70;;;;;;;30.26;100.00;100712.63;1391638;93;21509;-83
2023/08/22 08:58:44;;;;;;;17.00;9.23;;;;;;;30.43;100.00;100709.62;1388685;93;21567;-82
2023/08/22 09:01:11;;;;;;;11.95;9.83;;;;;;;30.48;100.00;100707.72;1401643;92;22353;-82
2023/08/22 09:03:37;;;;;;;13.45;9.90;;;;;;;30.51;100.00;100709.91;1406582;92;21626;-82
2023/08/22 09:06:04;;;;;;;14.30;9.05;;;;;;;30.48;100.00;100710.45;1388166;93;21523;-82
2023/08/22 09:08:30;;;;;;;11.95;8.83;;;;;;;30.60;100.00;100710.72;1404598;92;21579;-82
2023/08/22 09:10:56;;;;;;;14.45;8.50;;;;;;;30.66;100.00;100707.70;1442447;90;21582;-83
2023/08/22 09:13:28;;;;;;;12.58;8.85;;;;;;;30.79;100.00;100710.46;1451813;90;22444;-82
2023/08/22 09:16:01;;;;;;;13.48;10.03;;;;;;;30.86;100.00;100705.52;1452102;90;21493;-82
2023/08/22 09:18:27;;;;;;;10.28;8.98;;;;;;;30.82;100.00;100710.46;1428099;91;22502;-82
2023/08/22 09:21:03;;;;;;;9.08;8.18;;;;;;;30.98;100.00;100710.68;1455385;89;21633;-82
2023/08/22 09:23:31;;;;;;;13.03;8.95;;;;;;;31.21;100.00;100699.13;1453979;90;21641;-82
2023/08/22 09:25:59;;;;;;;12.80;8.85;;;;;;;31.28;100.00;100698.85;1452469;90;22344;-83
2023/08/22 09:28:25;;;;;;;15.90;9.55;;;;;;;31.35;100.00;100696.65;1454639;90;21722;-82
2023/08/22 09:30:54;;;;;;;11.90;9.63;;;;;;;31.32;100.00;100702.65;1452150;90;21404;-81
2023/08/22 09:33:21;;;;;;;14.05;9.45;;;;;;;31.36;100.00;100698.83;1455009;90;21464;-81
2023/08/22 09:35:48;;;;;;;13.70;9.43;;;;;;;31.18;100.00;100701.61;1451042;90;21412;-81
2023/08/22 09:38:14;;;;;;;10.45;9.00;;;;;;;31.06;100.00;100702.47;1453487;90;21589;-81
2023/08/22 09:40:52;;;;;;;10.08;8.90;;;;;;;31.13;100.00;100700.25;1449805;90;21450;-82
2023/08/22 09:43:19;;;;;;;10.45;9.45;;;;;;;31.20;100.00;100696.69;1452944;90;21516;-82
2023/08/22 09:45:48;;;;;;;13.13;9.15;;;;;;;31.30;100.00;100696.63;1451783;90;21736;-81
2023/08/22 09:48:23;;;;;;;12.60;9.10;;;;;;;31.38;100.00;100693.91;1377097;89;21324;-82
2023/08/22 09:50:53;;;;;;;11.93;8.30;;;;;;;31.40;100.00;100697.19;1374624;91;21457;-81
2023/08/22 09:53:21;;;;;;;14.98;10.00;;;;;;;31.47;100.00;100689.48;1533494;90;21550;-82
2023/08/22 09:59:51;;;;;;;11.35;9.53;;;;;;;31.77;100.00;100669.92;1535214;90;21346;-82
2023/08/22 10:02:22;;;;;;;12.68;8.65;;;;;;;31.95;100.00;100665.16;1529272;90;21516;-81
2023/08/22 10:04:47;;;;;;;16.93;9.00;;;;;;;31.90;99.00;100666.00;1374367;91;22322;-81
2023/08/22 10:07:14;;;;;;;14.63;8.18;;;;;;;32.02;100.00;100660.17;1378589;90;21570;-81
2023/08/22 10:09:41;;;;;;;12.03;9.10;;;;;;;32.08;100.00;100670.53;1384993;90;21383;-81
2023/08/22 10:12:12;;;;;;;11.93;9.33;;;;;;;32.09;98.86;100666.71;1527828;90;21480;-82
2023/08/22 10:14:52;;;;;;;14.78;9.08;;;;;;;32.11;98.80;100667.22;1451870;90;21501;-81
2023/08/22 10:17:20;;;;;;;12.75;8.38;;;;;;;32.26;99.59;100667.11;1445563;90;21644;-81
2023/08/22 10:19:46;;;;;;;9.13;8.20;;;;;;;32.23;96.58;100666.32;1443841;89;21485;-82
2023/08/22 10:22:19;;;;;;;10.43;8.10;;;;;;;32.16;95.23;100668.55;1422527;91;22050;-81
2023/08/22 10:25:05;;;;;;;10.75;8.50;;;;;;;32.29;96.14;100670.64;1452996;89;21685;-82
2023/08/22 10:27:40;;;;;;;15.18;8.80;;;;;;;32.38;95.55;100656.34;1454554;90;21471;-82
2023/08/22 10:30:21;;;;;;;9.75;8.48;;;;;;;32.56;94.45;100652.89;1453504;90;21739;-82
2023/08/22 10:33:05;;;;;;;15.08;8.20;;;;;;;32.67;90.82;100653.06;1452035;90;21471;-82
2023/08/22 10:35:31;;;;;;;10.63;6.97;;;;;;;32.69;92.52;100649.48;1375619;90;21369;-82
2023/08/22 10:37:58;;;;;;;8.68;7.42;;;;;;;32.69;90.36;100644.00;1371861;90;21369;-82
2023/08/22 10:40:33;;;;;;;12.13;7.95;;;;;;;32.75;91.48;100638.73;1535148;90;21347;-82
2023/08/22 10:49:21;;;;;;;8.35;7.55;;;;;;;32.80;80.06;100633.73;1350604;106;21428;-82
2023/08/22 10:51:53;;;;;;;14.80;7.87;;;;;;;32.76;80.37;100638.17;1339773;93;21488;-82
2023/08/22 10:54:19;;;;;;;8.33;7.30;;;;;;;32.88;80.96;100635.02;1503963;91;21377;-80
2023/08/22 10:56:45;;;;;;;10.90;8.43;;;;;;;32.95;80.32;100632.76;1379616;91;22308;-83
2023/08/22 10:59:12;;;;;;;11.57;7.55;;;;;;;33.08;81.18;100643.03;1505231;91;21421;-82
2023/08/22 11:05:37;;;;;;;11.03;7.87;;;;;;;33.47;81.38;100636.50;1505219;91;21481;-83
2023/08/22 11:08:05;;;;;;;8.70;7.80;;;;;;;33.58;79.71;100635.27;1340375;93;21519;-82
2023/08/22 11:10:39;;;;;;;10.20;7.65;;;;;;;33.68;79.35;100635.11;1460581;91;21486;-82
2023/08/22 11:13:11;;;;;;;8.65;7.60;;;;;;;33.64;77.77;100635.45;1505072;91;21429;-81
2023/08/22 11:15:39;;;;;;;10.63;7.92;;;;;;;33.57;57.57;100631.44;1380628;91;21443;-82
2023/08/22 11:18:08;;;;;;;7.78;7.00;;;;;;;33.62;57.60;100623.95;1415033;91;21568;-83
2023/08/22 11:20:34;;;;;;;17.82;7.92;;;;;;;33.64;49.47;100625.04;1505076;91;21317;-82
2023/08/22 11:23:11;;;;;;;9.40;7.62;;;;;;;33.86;50.11;100620.29;1440773;91;21378;-82
2023/08/22 11:29:52;;;;;;;8.90;7.92;;;;;;;34.14;48.17;100621.23;1445424;90;21508;-81
2023/08/22 11:32:32;;;;;;;12.30;8.05;;;;;;;34.19;46.61;100621.72;1424888;90;21805;-81
2023/08/22 11:35:03;;;;;;;11.60;7.70;;;;;;;34.27;46.99;100625.12;1451440;90;21671;-79
2023/08/22 11:37:37;;;;;;;8.15;7.30;;;;;;;34.39;46.76;100628.22;1479385;90;21441;-82
2023/08/22 11:40:08;;;;;;;13.62;7.65;;;;;;;34.38;44.96;100630.69;1353820;93;21445;-81